Time;durP1;ratioP1;P1;durP2;ratioP2;P2;SDS_P1;SDS_P2;PMS_P1;PMS_P2;Temp;Humidity;BMP_temperature;BMP_pressure;BME280_temperature;BME280_humidity;BME280_pressure;Samples;Min_cycle;Max_cycle;Signal;HPM_P1;HPM_P2
2023/08/29 00:02:31;;;;;;;1.20;1.10;;;17.40;1.00;;;;;;10548740;28;20198;-86
2023/08/29 00:07:53;;;;;;;1.40;1.02;;;17.30;1.00;;;;;;10562504;28;20298;-81
2023/08/29 00:13:14;;;;;;;2.70;1.30;;;17.30;1.00;;;;;;10548614;28;20226;-81
2023/08/29 00:18:35;;;;;;;1.00;0.82;;;17.30;1.00;;;;;;10562859;28;20251;-82
2023/08/29 00:23:56;;;;;;;2.92;1.10;;;17.30;1.00;;;;;;10565363;28;20190;-86
2023/08/29 00:29:18;;;;;;;2.67;1.27;;;17.20;99.90;;;;;;10549704;28;20241;-81
2023/08/29 00:34:39;;;;;;;1.73;1.23;;;17.20;1.00;;;;;;10547438;28;20526;-81
2023/08/29 00:40:00;;;;;;;1.73;1.10;;;17.10;1.00;;;;;;10539793;28;20237;-81
2023/08/29 00:45:22;;;;;;;1.65;1.00;;;17.00;1.00;;;;;;10561973;28;20266;-79
2023/08/29 00:51:14;;;;;;;2.85;1.20;;;;;;;;;;10551873;28;20206;-82
2023/08/29 00:56:36;;;;;;;3.47;1.55;;;17.00;1.00;;;;;;10562345;28;20203;-86
2023/08/29 01:07:18;;;;;;;1.58;1.13;;;16.90;99.90;;;;;;10561913;28;20233;-88
2023/08/29 01:12:56;;;;;;;1.67;1.10;;;16.90;1.00;;;;;;10562018;28;20489;-90
2023/08/29 01:18:19;;;;;;;2.40;1.25;;;16.90;99.90;;;;;;10548771;28;20202;-82
2023/08/29 01:23:47;;;;;;;2.70;1.35;;;16.90;1.00;;;;;;10541310;28;20389;-84
2023/08/29 01:29:10;;;;;;;1.20;1.10;;;17.00;1.00;;;;;;10555319;28;20264;-81
2023/08/29 01:34:32;;;;;;;1.40;1.02;;;17.00;1.00;;;;;;10569115;28;20201;-85
2023/08/29 01:39:54;;;;;;;2.75;1.48;;;17.00;1.00;;;;;;10546023;28;20233;-81
2023/08/29 01:45:16;;;;;;;2.30;1.20;;;17.00;1.00;;;;;;10569315;28;20224;-89
2023/08/29 01:50:37;;;;;;;1.30;1.20;;;16.90;1.00;;;;;;10554465;28;20229;-90
2023/08/29 01:56:00;;;;;;;1.20;1.10;;;16.90;99.90;;;;;;10568996;28;20375;-85
2023/08/29 02:01:21;;;;;;;1.80;1.40;;;16.80;88.70;;;;;;10539474;28;20279;-85
2023/08/29 02:06:43;;;;;;;1.85;1.25;;;16.70;99.90;;;;;;10554167;28;20286;-87
2023/08/29 02:12:04;;;;;;;1.42;1.25;;;16.80;99.90;;;;;;10539139;28;20201;-81
2023/08/29 02:17:27;;;;;;;1.85;1.48;;;16.80;99.90;;;;;;10552761;28;20243;-86
2023/08/29 02:22:48;;;;;;;2.90;1.40;;;16.70;99.90;;;;;;10567380;28;20576;-81
2023/08/29 02:28:09;;;;;;;1.52;1.30;;;16.70;99.90;;;;;;10552261;28;20551;-80
2023/08/29 02:33:31;;;;;;;2.42;1.52;;;16.70;99.90;;;;;;10538775;28;20200;-88
2023/08/29 02:38:53;;;;;;;2.03;1.50;;;16.60;70.80;;;;;;10537883;28;20269;-82
2023/08/29 02:44:15;;;;;;;2.00;1.30;;;16.60;99.90;;;;;;10580690;28;20214;-87
2023/08/29 02:54:58;;;;;;;1.38;1.20;;;16.60;1.00;;;;;;10566107;28;20268;-80
2023/08/29 03:00:20;;;;;;;2.05;1.48;;;16.60;1.00;;;;;;10565791;28;20212;-83
2023/08/29 03:06:06;;;;;;;1.88;1.58;;;16.50;1.00;;;;;;10566046;28;20209;-81
2023/08/29 03:11:28;;;;;;;2.63;1.40;;;16.60;1.00;;;;;;10550906;28;20501;-83
2023/08/29 03:27:56;;;;;;;2.03;1.50;;;16.40;1.00;;;;;;10564721;28;20233;-86
2023/08/29 03:33:17;;;;;;;2.08;1.52;;;16.40;1.00;;;;;;10550219;28;20201;-85
2023/08/29 03:38:40;;;;;;;1.60;1.50;;;16.50;21.30;;;;;;10563958;28;20242;-85
2023/08/29 03:44:03;;;;;;;3.13;2.25;;;16.30;99.90;;;;;;10548981;28;20245;-86
2023/08/29 03:49:25;;;;;;;4.65;2.63;;;;;;;;;;10549072;28;20304;-82
2023/08/29 04:00:10;;;;;;;6.13;2.95;;;;;;;;;;10563434;28;20201;-90
2023/08/29 04:05:37;;;;;;;2.28;1.77;;;;;;;;;;10549543;28;20233;-80
2023/08/29 04:28:36;;;;;;;3.38;1.88;;;;;;;;;;10562635;28;20201;-83
2023/08/29 04:39:21;;;;;;;3.88;2.63;;;;;;;;;;10377739;28;20229;-82
2023/08/29 04:44:44;;;;;;;3.15;2.30;;;;;;;;;;10548001;28;20192;-86
2023/08/29 04:50:08;;;;;;;4.65;3.13;;;;;;;;;;10562520;28;20281;-89
2023/08/29 04:55:30;;;;;;;2.60;1.90;;;16.00;1.00;;;;;;10546221;28;20367;-81
2023/08/29 05:00:51;;;;;;;2.85;1.60;;;16.20;1.00;;;;;;10546997;28;20229;-82
2023/08/29 05:06:12;;;;;;;2.00;1.83;;;16.20;1.00;;;;;;10561053;28;20269;-79
2023/08/29 05:11:34;;;;;;;1.65;1.55;;;16.30;1.00;;;;;;10546838;28;20386;-82
2023/08/29 05:16:56;;;;;;;1.60;1.50;;;16.20;1.00;;;;;;10547572;28;20285;-89
2023/08/29 05:22:18;;;;;;;2.10;1.90;;;;;;;;;;10548737;28;20205;-80
2023/08/29 05:27:40;;;;;;;1.95;1.75;;;;;;;;;;10561508;28;20205;-81
2023/08/29 05:33:03;;;;;;;1.88;1.75;;;;;;;;;;10546582;28;20201;-79
2023/08/29 05:38:27;;;;;;;2.03;1.65;;;;;;;;;;10545336;28;20235;-82
2023/08/29 05:49:10;;;;;;;2.60;1.90;;;;;;;;;;10559999;28;20511;-80
2023/08/29 05:54:36;;;;;;;3.00;1.90;;;;;;;;;;10531293;28;20204;-79
2023/08/29 05:59:59;;;;;;;1.92;1.70;;;;;;;;;;10545694;28;20228;-80
2023/08/29 06:05:48;;;;;;;2.90;2.55;;;16.30;1.00;;;;;;10564468;28;20197;-80
2023/08/29 06:11:10;;;;;;;2.72;2.38;;;16.50;1.00;;;;;;10567542;28;20205;-81
2023/08/29 06:16:32;;;;;;;3.25;2.95;;;16.40;1.00;;;;;;10567361;28;20500;-80
2023/08/29 06:21:53;;;;;;;3.95;3.20;;;16.30;1.00;;;;;;10566693;28;20272;-80
2023/08/29 06:27:14;;;;;;;6.78;3.08;;;16.30;1.00;;;;;;10568036;28;20196;-90
2023/08/29 06:32:36;;;;;;;13.93;7.05;;;;;;;;;;10567734;28;20491;-79
2023/08/29 06:37:58;;;;;;;13.57;7.97;;;;;;;;;;10566170;28;20560;-82
2023/08/29 06:43:21;;;;;;;28.23;12.85;;;;;;;;;;10566079;28;20287;-80
2023/08/29 06:48:42;;;;;;;20.50;9.50;;;16.00;1.00;;;;;;10551170;28;20236;-80
2023/08/29 06:54:03;;;;;;;18.02;9.73;;;16.40;1.00;;;;;;10537313;28;20271;-80
2023/08/29 06:59:24;;;;;;;25.08;10.48;;;16.40;1.00;;;;;;10566640;28;20223;-82
2023/08/29 07:04:46;;;;;;;20.85;9.77;;;16.40;1.00;;;;;;10550499;28;20198;-80
2023/08/29 07:10:07;;;;;;;9.65;5.40;;;16.40;1.00;;;;;;10566197;28;20197;-79
2023/08/29 07:15:28;;;;;;;2.63;2.42;;;16.50;1.00;;;;;;10565112;28;20188;-86
2023/08/29 07:20:49;;;;;;;6.18;3.95;;;16.40;1.00;;;;;;10564452;28;20235;-83
2023/08/29 07:26:10;;;;;;;10.57;6.15;;;16.50;1.00;;;;;;10550587;28;20189;-86
2023/08/29 07:31:31;;;;;;;11.63;6.03;;;16.50;1.00;;;;;;10550182;28;20225;-84
2023/08/29 07:36:53;;;;;;;8.82;5.00;;;16.50;1.00;;;;;;10563244;28;20207;-81
2023/08/29 07:42:14;;;;;;;6.40;3.53;;;16.50;1.00;;;;;;10521580;28;20276;-84
2023/08/29 07:47:35;;;;;;;9.20;4.85;;;16.50;1.00;;;;;;10535792;28;20358;-86
2023/08/29 07:52:57;;;;;;;6.05;3.80;;;16.60;1.00;;;;;;10563137;28;20204;-85
2023/08/29 07:58:18;;;;;;;4.18;2.92;;;16.50;1.00;;;;;;10562957;28;20224;-85
2023/08/29 08:03:40;;;;;;;3.80;2.83;;;16.60;1.00;;;;;;10563063;28;20198;-79
2023/08/29 08:09:04;;;;;;;3.28;2.38;;;16.50;1.00;;;;;;10563102;28;20212;-80
2023/08/29 08:14:25;;;;;;;3.28;2.67;;;16.60;1.00;;;;;;10548383;28;20197;-83
2023/08/29 08:19:47;;;;;;;4.07;2.40;;;16.70;1.00;;;;;;10533611;28;20387;-80
2023/08/29 08:25:10;;;;;;;3.35;2.40;;;16.70;1.00;;;;;;10548199;28;20241;-81
2023/08/29 08:30:31;;;;;;;5.20;2.60;;;16.80;1.00;;;;;;10561821;28;20490;-80
2023/08/29 08:35:52;;;;;;;2.95;2.58;;;16.80;1.00;;;;;;10547087;28;20205;-82
2023/08/29 08:41:18;;;;;;;3.28;2.30;;;16.90;1.00;;;;;;10519069;28;20305;-79
2023/08/29 08:46:39;;;;;;;3.97;2.20;;;16.90;1.00;;;;;;10520381;28;20225;-83
2023/08/29 08:52:03;;;;;;;3.70;3.03;;;17.00;1.00;;;;;;10557400;28;20194;-82
2023/08/29 08:57:25;;;;;;;5.07;2.65;;;17.00;1.00;;;;;;10561247;28;20232;-81
2023/08/29 09:02:47;;;;;;;5.30;4.70;;;17.10;1.00;;;;;;10546246;28;20205;-80
2023/08/29 09:08:08;;;;;;;3.90;2.35;;;17.10;1.00;;;;;;10546616;28;20225;-80
2023/08/29 09:13:30;;;;;;;3.20;2.55;;;17.00;1.00;;;;;;10561763;28;20275;-86
2023/08/29 09:18:51;;;;;;;3.80;2.78;;;17.10;1.00;;;;;;10561323;28;20326;-79
2023/08/29 09:24:13;;;;;;;3.65;2.60;;;17.00;1.00;;;;;;10545985;28;20190;-81
2023/08/29 09:29:34;;;;;;;7.78;4.93;;;17.10;1.00;;;;;;10560257;28;20276;-85
2023/08/29 09:34:59;;;;;;;5.15;3.08;;;17.10;1.00;;;;;;10560508;28;20197;-89
2023/08/29 09:40:21;;;;;;;2.83;1.67;;;16.90;1.00;;;;;;10564778;28;20310;-81
2023/08/29 09:45:53;;;;;;;2.22;1.63;;;16.80;1.00;;;;;;10553971;28;20201;-86
2023/08/29 09:51:14;;;;;;;2.38;1.60;;;16.90;1.00;;;;;;10554140;28;20428;-87
2023/08/29 09:56:38;;;;;;;1.60;1.40;;;16.80;1.00;;;;;;10568539;28;20192;-83
2023/08/29 10:01:59;;;;;;;1.92;1.52;;;16.90;1.00;;;;;;10567839;28;20232;-84
2023/08/29 10:07:26;;;;;;;1.70;1.60;;;16.90;1.00;;;;;;10553641;28;20201;-85
2023/08/29 10:12:49;;;;;;;1.40;1.30;;;16.90;1.00;;;;;;10539138;28;20223;-81
2023/08/29 10:18:11;;;;;;;1.70;1.60;;;17.00;1.00;;;;;;10567548;28;20218;-80
2023/08/29 10:23:35;;;;;;;2.78;1.95;;;16.90;1.00;;;;;;10552741;28;20240;-87
2023/08/29 10:28:57;;;;;;;2.55;1.70;;;16.90;1.00;;;;;;10538671;28;20194;-85
2023/08/29 10:34:20;;;;;;;2.38;1.77;;;17.00;1.00;;;;;;10552449;28;20200;-84
2023/08/29 10:39:43;;;;;;;1.88;1.52;;;17.10;1.00;;;;;;10551530;28;20321;-83
2023/08/29 10:45:04;;;;;;;3.13;2.03;;;17.10;1.00;;;;;;10580639;28;20194;-81
2023/08/29 10:50:25;;;;;;;2.67;1.95;;;17.10;1.00;;;;;;10550449;28;20276;-86
2023/08/29 10:56:03;;;;;;;2.10;1.75;;;17.10;1.00;;;;;;10551669;28;20197;-87
2023/08/29 11:01:24;;;;;;;2.40;1.77;;;17.10;1.00;;;;;;10551770;28;20232;-83
2023/08/29 11:06:53;;;;;;;2.42;1.85;;;17.20;1.00;;;;;;10565842;28;20197;-81
2023/08/29 11:12:18;;;;;;;1.90;1.80;;;17.20;1.00;;;;;;10567346;28;20200;-80
2023/08/29 11:17:39;;;;;;;2.25;1.40;;;17.10;1.00;;;;;;10566573;28;20200;-80
2023/08/29 11:23:00;;;;;;;2.65;1.70;;;17.20;1.00;;;;;;10564396;28;20212;-83
2023/08/29 11:28:21;;;;;;;2.88;1.48;;;17.30;1.00;;;;;;10549713;28;20537;-80
2023/08/29 11:33:43;;;;;;;2.45;1.45;;;17.20;1.00;;;;;;10564392;28;20294;-81
2023/08/29 11:39:06;;;;;;;2.80;1.80;;;17.20;1.00;;;;;;10524861;28;20245;-86
2023/08/29 11:44:29;;;;;;;2.00;1.55;;;17.30;1.00;;;;;;10549553;28;20480;-82
2023/08/29 11:49:54;;;;;;;2.08;1.83;;;17.30;1.00;;;;;;10563710;28;20221;-83
2023/08/29 11:55:16;;;;;;;2.35;1.50;;;17.30;1.00;;;;;;10563371;28;20192;-80
2023/08/29 12:00:38;;;;;;;1.38;1.27;;;17.30;1.00;;;;;;10563124;28;20540;-80
2023/08/29 12:05:59;;;;;;;1.52;1.42;;;17.30;1.00;;;;;;10563951;28;20213;-79
2023/08/29 12:11:21;;;;;;;3.30;1.13;;;17.30;1.00;;;;;;10562977;28;20194;-82
2023/08/29 12:16:42;;;;;;;2.95;1.50;;;17.20;1.00;;;;;;10548156;28;20194;-83
2023/08/29 12:22:03;;;;;;;1.85;1.42;;;17.30;1.00;;;;;;10562063;28;20289;-81
2023/08/29 12:27:24;;;;;;;3.08;1.52;;;17.30;1.00;;;;;;10561975;28;20201;-84
2023/08/29 12:32:47;;;;;;;1.55;1.45;;;17.30;1.00;;;;;;10547581;28;20392;-80
2023/08/29 12:38:08;;;;;;;3.38;2.00;;;17.30;1.00;;;;;;10547483;28;20222;-85
2023/08/29 12:43:29;;;;;;;3.28;1.80;;;17.30;1.00;;;;;;10561948;28;20210;-80
2023/08/29 12:48:52;;;;;;;2.47;2.25;;;17.30;1.00;;;;;;10561495;28;20322;-83
2023/08/29 12:54:14;;;;;;;4.57;2.30;;;17.40;1.00;;;;;;10532608;28;20200;-88
2023/08/29 12:59:35;;;;;;;3.15;2.22;;;17.40;1.00;;;;;;10561694;28;20224;-89
2023/08/29 13:04:56;;;;;;;3.80;2.38;;;17.40;1.00;;;;;;10546985;28;20429;-80
2023/08/29 13:10:18;;;;;;;3.60;2.72;;;17.50;1.00;;;;;;10561716;28;20432;-85
2023/08/29 13:15:39;;;;;;;3.88;2.58;;;17.60;1.00;;;;;;10546005;28;20243;-81
2023/08/29 13:21:09;;;;;;;3.60;2.60;;;17.60;1.00;;;;;;10560469;28;20536;-85
2023/08/29 13:26:30;;;;;;;3.20;2.53;;;17.50;1.00;;;;;;10532212;28;20353;-80
2023/08/29 13:31:52;;;;;;;3.22;2.40;;;17.50;1.00;;;;;;10546642;28;20200;-85
2023/08/29 13:37:13;;;;;;;4.60;3.10;;;17.50;1.00;;;;;;10560312;28;20201;-80
2023/08/29 13:42:35;;;;;;;3.50;2.67;;;17.50;1.00;;;;;;10560940;28;20241;-81
2023/08/29 13:47:57;;;;;;;2.83;2.55;;;17.50;1.00;;;;;;10545669;28;20192;-81
2023/08/29 13:53:18;;;;;;;6.97;2.65;;;17.60;1.00;;;;;;10545775;28;20209;-84
2023/08/29 13:58:39;;;;;;;3.40;2.78;;;17.60;1.00;;;;;;10519330;28;20226;-80
2023/08/29 14:04:01;;;;;;;4.13;2.95;;;17.60;1.00;;;;;;10534859;28;20191;-80
2023/08/29 14:09:22;;;;;;;3.58;3.17;;;17.60;1.00;;;;;;10534921;28;20225;-84
2023/08/29 14:14:44;;;;;;;4.20;3.13;;;17.70;1.00;;;;;;10503878;28;20199;-82
2023/08/29 14:20:05;;;;;;;6.05;3.30;;;17.70;1.00;;;;;;10518597;28;20219;-83
2023/08/29 14:25:29;;;;;;;7.18;3.45;;;17.60;1.00;;;;;;10561597;28;20194;-83
2023/08/29 14:30:50;;;;;;;4.85;2.88;;;17.50;1.00;;;;;;10552705;28;20278;-80
2023/08/29 14:36:11;;;;;;;5.90;3.38;;;17.50;1.00;;;;;;10552031;28;20240;-82
2023/08/29 14:41:33;;;;;;;3.83;3.00;;;17.60;8.50;;;;;;10567076;28;20496;-80
2023/08/29 14:46:54;;;;;;;3.53;2.60;;;17.50;36.80;;;;;;10567140;28;20193;-80
2023/08/29 14:52:15;;;;;;;3.35;3.00;;;17.60;21.20;;;;;;10565760;28;20206;-84
2023/08/29 14:57:38;;;;;;;3.00;2.65;;;17.50;48.50;;;;;;10566024;28;20198;-84
2023/08/29 15:02:59;;;;;;;4.90;3.20;;;17.50;99.90;;;;;;10565942;28;20221;-84
2023/08/29 15:08:22;;;;;;;3.60;3.20;;;17.50;99.90;;;;;;10566871;28;20376;-87
2023/08/29 15:13:43;;;;;;;5.45;3.20;;;17.60;99.90;;;;;;10551151;28;20197;-81
2023/08/29 15:19:04;;;;;;;4.10;3.28;;;17.60;99.90;;;;;;10564924;28;20394;-82
2023/08/29 15:24:25;;;;;;;4.70;3.00;;;17.60;99.90;;;;;;10550557;28;20221;-81
2023/08/29 15:29:46;;;;;;;2.78;2.50;;;17.60;99.90;;;;;;10564770;28;20198;-83
2023/08/29 15:35:08;;;;;;;3.00;2.70;;;17.50;99.90;;;;;;10564061;28;20199;-79
2023/08/29 15:40:29;;;;;;;3.65;2.83;;;17.60;99.90;;;;;;10548894;28;20547;-80
2023/08/29 15:45:50;;;;;;;4.93;3.22;;;17.50;99.90;;;;;;10566359;28;20201;-87
2023/08/29 15:51:14;;;;;;;6.10;3.00;;;17.50;99.90;;;;;;10564546;28;20201;-80
2023/08/29 15:56:35;;;;;;;5.53;3.17;;;17.50;99.90;;;;;;10563318;28;20195;-81
2023/08/29 16:01:57;;;;;;;4.60;3.20;;;17.50;99.90;;;;;;10563176;28;20230;-82
2023/08/29 16:07:18;;;;;;;5.55;3.33;;;17.50;99.90;;;;;;10535047;28;20208;-81
2023/08/29 16:12:41;;;;;;;4.53;3.33;;;17.50;99.90;;;;;;10563993;28;20228;-80
2023/08/29 16:18:03;;;;;;;3.95;3.00;;;17.50;99.90;;;;;;10548266;28;20554;-86
2023/08/29 16:23:25;;;;;;;4.90;2.60;;;17.50;99.90;;;;;;10548357;28;20194;-88
2023/08/29 16:28:46;;;;;;;3.08;2.75;;;17.50;99.90;;;;;;10562364;28;20264;-87
2023/08/29 16:34:07;;;;;;;2.92;2.70;;;17.60;99.90;;;;;;10561963;28;20195;-90
2023/08/29 16:39:28;;;;;;;4.00;2.67;;;17.60;99.90;;;;;;10547444;28;20261;-84
2023/08/29 16:44:51;;;;;;;2.95;2.15;;;17.60;99.90;;;;;;10547324;28;20281;-80
2023/08/29 16:50:12;;;;;;;2.55;2.28;;;17.60;99.90;;;;;;10547386;28;20202;-84
2023/08/29 16:55:33;;;;;;;3.70;2.53;;;17.60;99.90;;;;;;10547247;28;20210;-84
2023/08/29 17:00:54;;;;;;;3.20;2.83;;;17.60;99.90;;;;;;10562165;28;20467;-82
2023/08/29 17:06:15;;;;;;;6.45;4.25;;;17.60;99.90;;;;;;10561769;28;20206;-79
2023/08/29 17:11:36;;;;;;;6.82;4.32;;;17.60;99.90;;;;;;10561162;28;20202;-85
2023/08/29 17:16:58;;;;;;;4.00;3.28;;;17.60;99.90;;;;;;10546783;28;20186;-80
2023/08/29 17:22:19;;;;;;;3.92;2.78;;;17.70;99.90;;;;;;10546182;28;20225;-78
2023/08/29 17:27:40;;;;;;;6.35;4.22;;;17.60;99.90;;;;;;10545985;28;20209;-80
2023/08/29 17:33:02;;;;;;;12.70;7.03;;;17.60;99.90;;;;;;10560199;28;20265;-79
2023/08/29 17:38:23;;;;;;;10.32;6.78;;;17.60;99.90;;;;;;10559744;28;20210;-79
2023/08/29 17:43:44;;;;;;;8.65;5.38;;;17.60;99.90;;;;;;10559891;28;20200;-90
2023/08/29 17:49:06;;;;;;;7.28;4.88;;;17.60;99.90;;;;;;10546149;28;20204;-81
2023/08/29 17:54:27;;;;;;;7.65;3.80;;;17.50;99.90;;;;;;10545925;28;20420;-82
2023/08/29 17:59:49;;;;;;;5.40;3.28;;;17.50;99.90;;;;;;10532425;28;20301;-80
2023/08/29 18:05:10;;;;;;;4.32;3.83;;;17.50;99.90;;;;;;10568277;28;20247;-85
2023/08/29 18:10:31;;;;;;;5.03;3.90;;;17.50;99.90;;;;;;10567977;28;20201;-83
2023/08/29 18:15:54;;;;;;;6.28;3.85;;;17.50;99.90;;;;;;10553701;28;20198;-84
2023/08/29 18:21:15;;;;;;;4.78;3.85;;;17.50;99.90;;;;;;10538868;28;20439;-81
2023/08/29 18:26:37;;;;;;;3.85;3.40;;;17.40;99.90;;;;;;10567987;28;20198;-78
2023/08/29 18:31:57;;;;;;;5.28;3.15;;;17.50;99.90;;;;;;10568070;28;20210;-80
2023/08/29 18:37:19;;;;;;;3.90;3.50;;;17.50;99.90;;;;;;10566532;28;20277;-80
2023/08/29 18:42:40;;;;;;;3.92;3.47;;;17.50;99.90;;;;;;10524284;28;20288;-81
2023/08/29 18:48:01;;;;;;;4.40;3.92;;;17.50;99.90;;;;;;10527605;28;20196;-80
2023/08/29 18:53:23;;;;;;;3.55;3.25;;;17.50;99.90;;;;;;10566248;28;20270;-81
2023/08/29 18:58:45;;;;;;;7.03;5.32;;;17.60;99.90;;;;;;10512467;28;20199;-78
2023/08/29 19:04:06;;;;;;;5.63;5.00;;;17.60;99.90;;;;;;10510123;28;20228;-80
2023/08/29 19:09:28;;;;;;;4.65;4.10;;;17.60;99.90;;;;;;10523439;28;20191;-81
2023/08/29 19:14:49;;;;;;;4.82;4.20;;;17.60;99.90;;;;;;10522263;28;20544;-81
2023/08/29 19:20:11;;;;;;;4.60;3.63;;;17.60;99.90;;;;;;10508894;28;20226;-82
2023/08/29 19:25:32;;;;;;;3.40;3.10;;;17.60;99.90;;;;;;10563927;28;20186;-84
2023/08/29 19:30:56;;;;;;;3.72;3.25;;;17.60;99.90;;;;;;10550430;28;20273;-79
2023/08/29 19:36:18;;;;;;;3.53;3.22;;;17.60;99.90;;;;;;10549939;28;20202;-84
2023/08/29 19:41:39;;;;;;;4.28;3.63;;;17.60;99.90;;;;;;10563822;28;20249;-82
2023/08/29 19:47:00;;;;;;;3.55;3.22;;;17.60;99.90;;;;;;10564239;28;20224;-84
2023/08/29 19:52:22;;;;;;;3.90;3.50;;;17.70;99.90;;;;;;10563465;28;20363;-90
2023/08/29 19:57:45;;;;;;;4.00;3.60;;;17.70;99.90;;;;;;10549977;28;20195;-81
2023/08/29 20:03:07;;;;;;;5.40;3.78;;;17.70;99.90;;;;;;10563940;28;20267;-82
2023/08/29 20:08:28;;;;;;;5.65;5.10;;;17.70;99.90;;;;;;10548770;28;20218;-82
2023/08/29 20:13:49;;;;;;;9.15;6.47;;;17.70;99.90;;;;;;10549279;28;20201;-82
2023/08/29 20:19:10;;;;;;;5.35;4.82;;;17.60;99.90;;;;;;10548667;28;20275;-84
2023/08/29 20:24:32;;;;;;;5.88;4.93;;;17.60;99.90;;;;;;10563226;28;20239;-86
2023/08/29 20:29:53;;;;;;;5.03;4.50;;;17.70;99.90;;;;;;10563746;28;20193;-86
2023/08/29 20:35:14;;;;;;;6.75;5.03;;;17.80;99.90;;;;;;10561837;28;20228;-85
2023/08/29 20:40:35;;;;;;;4.53;3.70;;;17.70;99.90;;;;;;10533279;28;20287;-87
2023/08/29 20:45:57;;;;;;;3.72;3.33;;;17.80;99.90;;;;;;10562223;28;20187;-85
2023/08/29 20:51:18;;;;;;;3.78;3.15;;;17.80;99.90;;;;;;10547261;28;20217;-91
2023/08/29 20:56:39;;;;;;;4.32;3.92;;;17.80;99.90;;;;;;10547152;28;20362;-89
2023/08/29 21:02:01;;;;;;;4.05;3.30;;;17.80;99.90;;;;;;10547718;28;20240;-84
2023/08/29 21:07:23;;;;;;;3.08;2.78;;;17.80;99.90;;;;;;10561688;28;20209;-87
2023/08/29 21:12:45;;;;;;;6.43;4.22;;;17.80;99.90;;;;;;10547426;28;20433;-84
2023/08/29 21:18:06;;;;;;;9.95;5.18;;;17.80;99.90;;;;;;10562502;28;20421;-91
2023/08/29 21:23:28;;;;;;;6.63;5.60;;;17.80;99.90;;;;;;10546410;28;20226;-87
2023/08/29 21:28:49;;;;;;;8.80;5.95;;;17.80;99.90;;;;;;10532983;28;20194;-83
2023/08/29 21:34:11;;;;;;;8.40;5.75;;;17.80;99.90;;;;;;10561007;28;20214;-81
2023/08/29 21:39:32;;;;;;;9.65;7.70;;;17.80;99.90;;;;;;10568718;28;20241;-86
2023/08/29 21:44:53;;;;;;;9.40;7.25;;;17.70;99.90;;;;;;10554809;28;20198;-80
2023/08/29 21:50:14;;;;;;;5.85;4.60;;;17.70;99.90;;;;;;10569040;28;20202;-82
2023/08/29 21:55:37;;;;;;;6.03;5.18;;;17.70;99.90;;;;;;10554589;28;20190;-82
2023/08/29 22:00:58;;;;;;;6.13;4.80;;;17.70;99.90;;;;;;10569251;28;20218;-81
2023/08/29 22:06:19;;;;;;;5.50;4.57;;;17.70;99.90;;;;;;10569091;28;20186;-81
2023/08/29 22:11:40;;;;;;;5.43;4.53;;;17.80;99.90;;;;;;10553886;28;20406;-86
2023/08/29 22:17:02;;;;;;;9.32;4.57;;;17.80;99.90;;;;;;10567388;28;20382;-85
2023/08/29 22:22:23;;;;;;;5.68;5.13;;;17.80;99.90;;;;;;10567213;28;20293;-82
2023/08/29 22:27:45;;;;;;;8.88;5.78;;;17.70;99.90;;;;;;10567619;28;20194;-84
2023/08/29 22:33:07;;;;;;;5.68;4.78;;;17.70;99.90;;;;;;10566951;28;20221;-89
2023/08/29 22:38:29;;;;;;;5.65;4.72;;;17.70;99.90;;;;;;10566855;28;20222;-87
2023/08/29 22:43:50;;;;;;;4.82;4.20;;;17.70;99.90;;;;;;10567193;28;20604;-87
2023/08/29 22:49:11;;;;;;;5.63;3.72;;;17.70;99.90;;;;;;10552399;28;20226;-87
2023/08/29 22:54:33;;;;;;;3.33;3.03;;;17.70;99.90;;;;;;10566604;28;20194;-83
2023/08/29 22:59:53;;;;;;;3.67;3.13;;;17.70;99.90;;;;;;10566202;28;20225;-83
2023/08/29 23:05:15;;;;;;;2.90;2.70;;;17.70;99.90;;;;;;10566277;28;20202;-85
2023/08/29 23:10:36;;;;;;;3.35;3.05;;;17.70;99.90;;;;;;10551828;28;20269;-85
2023/08/29 23:16:04;;;;;;;3.42;3.13;;;17.70;99.90;;;;;;10537182;28;20198;-81
2023/08/29 23:21:25;;;;;;;3.47;2.90;;;17.70;99.90;;;;;;10536824;28;20246;-84
2023/08/29 23:26:47;;;;;;;4.03;3.30;;;17.60;99.90;;;;;;10566173;28;20253;-84
2023/08/29 23:32:09;;;;;;;4.80;3.20;;;17.60;99.90;;;;;;10565552;28;20190;-83
2023/08/29 23:37:30;;;;;;;2.95;2.75;;;17.60;99.90;;;;;;10564721;28;20199;-82
2023/08/29 23:42:51;;;;;;;3.63;2.92;;;17.60;99.90;;;;;;10523198;28;20254;-86
2023/08/29 23:48:12;;;;;;;4.05;3.70;;;17.60;99.90;;;;;;10528009;28;20187;-81
2023/08/29 23:53:33;;;;;;;3.78;3.38;;;17.60;99.90;;;;;;10563907;28;20269;-81
2023/08/29 23:58:54;;;;;;;3.30;2.92;;;17.60;99.90;;;;;;10562875;28;20205;-85
